Aérodrome :
LOGIN :

S'inscrire | Disclaimer

   EN    FR    IT 

 










Légende :    VFR   VFR Marginal   IFR   IFR Intensif   IFR Très Intensif
Visi : 
Plafond : 
>= 8 km
>= 3000ft
5 à 8 km
1000 à 3000 ft
1500m à 5 km
500 à 1000 ft
800 à 1500m
200 à 500 ft
< 800m
< 200 ft
Symboles :   Orages  Brouillard  Fortes neiges  Fortes précipitations  Vent > 20 kt
SIGMETs :   Divers  Orages  Givrage  Turbulence  Onde Orograph.  Cendres Volcan.






- Altitude de l'aérodrome : 299 ft
- Code IATA : EDM


LFRI - La Roche Sur Yon - Les Ajoncs

DERNIER METAR :
  • 110430Z AUTO 34009KT 9000 OVC013 06/05 Q1012

METARs EXPIRÉS :
  • 110400Z AUTO 34011KT 9000 BKN010 OVC016 06/05 Q1011
  • 110330Z AUTO 34010KT 9000 BKN007 OVC017 06/05 Q1011
  • 110300Z AUTO 34009KT 9999 OVC007 06/06 Q1011
  • 110230Z AUTO 34008KT 9000 BKN008 OVC036 06/06 Q1011
  • 110200Z AUTO 35009KT 9999 BKN008 OVC032 06/06 Q1010

TAF AMD TAF LFRI
Valide du 10 à 18h jusqu'au 11 à 18h UTC


101843Z 1018/1118 20010KT 9999 BKN020
TEMPO 1018/1102 3000 SHRA BKN004 BKN020CB
BECMG 1021/1024 01010KT
PROB40
TEMPO 1103/1108 3000 BR BKN008
TEMPO 1108/1112 SCT030TCU
TEMPO 1112/1118 4000 SHRA SCT030CB



MET'MAP, la Météo Aéronautique d'un coup d'oeil ! - Copyright ORBIFLY Décembre 2007 - Disclaimer

ORBIFLY MET'MAP TEAM :

Programmation & Développement : Alexandra Zaïnal
Sur une idée originale de : Baudouin d'Aumeries
Assistance à la programmation : Marc-Olivier Méhu
Soutien technique & logistique : Manuel Goepfert

Contact : metmap@orbifly.com




SOURCES & CREDITS :

   NOAA